sensor_id;sensor_type;location;lat;lon;timestamp;P1;durP1;ratioP1;P2;durP2;ratioP2
11121;SDS011;5615;49.304;10.576;2024-01-15T00:01:00;56.60;;;21.93;;
11121;SDS011;5615;49.304;10.576;2024-01-15T00:03:27;64.83;;;20.47;;
11121;SDS011;5615;49.304;10.576;2024-01-15T00:05:54;62.37;;;24.93;;
11121;SDS011;5615;49.304;10.576;2024-01-15T00:08:20;57.40;;;24.80;;
11121;SDS011;5615;49.304;10.576;2024-01-15T00:10:47;58.07;;;23.83;;
11121;SDS011;5615;49.304;10.576;2024-01-15T00:13:14;55.67;;;21.67;;
11121;SDS011;5615;49.304;10.576;2024-01-15T00:15:40;56.93;;;23.17;;
11121;SDS011;5615;49.304;10.576;2024-01-15T00:18:08;59.17;;;23.47;;
11121;SDS011;5615;49.304;10.576;2024-01-15T00:20:35;64.83;;;23.27;;
11121;SDS011;5615;49.304;10.576;2024-01-15T00:23:02;57.40;;;21.80;;
11121;SDS011;5615;49.304;10.576;2024-01-15T00:25:28;60.07;;;23.50;;
11121;SDS011;5615;49.304;10.576;2024-01-15T00:27:55;61.73;;;24.27;;
11121;SDS011;5615;49.304;10.576;2024-01-15T00:30:22;61.53;;;23.97;;
11121;SDS011;5615;49.304;10.576;2024-01-15T00:32:48;60.47;;;24.07;;
11121;SDS011;5615;49.304;10.576;2024-01-15T00:35:16;60.60;;;24.17;;
11121;SDS011;5615;49.304;10.576;2024-01-15T00:37:43;57.37;;;23.60;;
11121;SDS011;5615;49.304;10.576;2024-01-15T00:40:10;62.40;;;24.43;;
11121;SDS011;5615;49.304;10.576;2024-01-15T00:42:36;57.73;;;22.47;;
11121;SDS011;5615;49.304;10.576;2024-01-15T00:45:03;53.73;;;21.73;;
11121;SDS011;5615;49.304;10.576;2024-01-15T00:47:32;57.83;;;22.93;;
11121;SDS011;5615;49.304;10.576;2024-01-15T00:49:59;60.97;;;22.40;;
11121;SDS011;5615;49.304;10.576;2024-01-15T00:52:27;60.50;;;24.43;;
11121;SDS011;5615;49.304;10.576;2024-01-15T00:54:54;55.73;;;23.37;;
11121;SDS011;5615;49.304;10.576;2024-01-15T00:57:20;56.63;;;20.53;;
11121;SDS011;5615;49.304;10.576;2024-01-15T00:59:47;51.43;;;22.30;;
11121;SDS011;5615;49.304;10.576;2024-01-15T01:02:14;64.33;;;23.43;;
11121;SDS011;5615;49.304;10.576;2024-01-15T01:04:40;58.47;;;22.27;;
11121;SDS011;5615;49.304;10.576;2024-01-15T01:07:07;54.87;;;21.10;;
11121;SDS011;5615;49.304;10.576;2024-01-15T01:09:35;51.80;;;21.20;;
11121;SDS011;5615;49.304;10.576;2024-01-15T01:12:02;54.47;;;19.73;;
11121;SDS011;5615;49.304;10.576;2024-01-15T01:14:29;52.27;;;21.07;;
11121;SDS011;5615;49.304;10.576;2024-01-15T01:16:55;47.03;;;20.57;;
11121;SDS011;5615;49.304;10.576;2024-01-15T01:19:22;47.00;;;19.80;;
11121;SDS011;5615;49.304;10.576;2024-01-15T01:21:50;49.93;;;20.53;;
11121;SDS011;5615;49.304;10.576;2024-01-15T01:24:17;49.20;;;18.13;;
11121;SDS011;5615;49.304;10.576;2024-01-15T01:26:45;53.13;;;20.20;;
11121;SDS011;5615;49.304;10.576;2024-01-15T01:29:12;55.00;;;21.17;;
11121;SDS011;5615;49.304;10.576;2024-01-15T01:31:42;53.87;;;19.77;;
11121;SDS011;5615;49.304;10.576;2024-01-15T01:34:09;52.57;;;20.33;;
11121;SDS011;5615;49.304;10.576;2024-01-15T01:36:35;53.60;;;19.90;;
11121;SDS011;5615;49.304;10.576;2024-01-15T01:39:02;47.73;;;20.50;;
11121;SDS011;5615;49.304;10.576;2024-01-15T01:41:29;47.63;;;20.03;;
11121;SDS011;5615;49.304;10.576;2024-01-15T01:43:57;46.17;;;18.73;;
11121;SDS011;5615;49.304;10.576;2024-01-15T01:46:23;38.23;;;14.90;;
11121;SDS011;5615;49.304;10.576;2024-01-15T01:48:51;49.80;;;21.50;;
11121;SDS011;5615;49.304;10.576;2024-01-15T01:51:18;39.43;;;18.23;;
11121;SDS011;5615;49.304;10.576;2024-01-15T01:53:46;42.43;;;17.73;;
11121;SDS011;5615;49.304;10.576;2024-01-15T01:56:13;44.47;;;19.37;;
11121;SDS011;5615;49.304;10.576;2024-01-15T01:58:40;50.10;;;19.47;;
11121;SDS011;5615;49.304;10.576;2024-01-15T02:01:08;53.00;;;19.97;;
11121;SDS011;5615;49.304;10.576;2024-01-15T02:03:36;48.70;;;20.27;;
11121;SDS011;5615;49.304;10.576;2024-01-15T02:06:03;41.73;;;16.53;;
11121;SDS011;5615;49.304;10.576;2024-01-15T02:08:30;45.53;;;18.43;;
11121;SDS011;5615;49.304;10.576;2024-01-15T02:10:56;44.07;;;17.23;;
11121;SDS011;5615;49.304;10.576;2024-01-15T02:13:23;54.07;;;22.07;;
11121;SDS011;5615;49.304;10.576;2024-01-15T02:15:50;48.10;;;19.23;;
11121;SDS011;5615;49.304;10.576;2024-01-15T02:18:18;45.50;;;17.67;;
11121;SDS011;5615;49.304;10.576;2024-01-15T02:20:45;44.63;;;18.43;;
11121;SDS011;5615;49.304;10.576;2024-01-15T02:23:13;46.83;;;19.27;;
11121;SDS011;5615;49.304;10.576;2024-01-15T02:25:41;47.53;;;18.43;;
11121;SDS011;5615;49.304;10.576;2024-01-15T02:28:10;50.53;;;17.63;;
11121;SDS011;5615;49.304;10.576;2024-01-15T02:30:38;45.80;;;19.73;;
11121;SDS011;5615;49.304;10.576;2024-01-15T02:33:05;38.10;;;16.60;;
11121;SDS011;5615;49.304;10.576;2024-01-15T02:35:32;35.93;;;14.80;;
11121;SDS011;5615;49.304;10.576;2024-01-15T02:38:01;43.23;;;16.47;;
11121;SDS011;5615;49.304;10.576;2024-01-15T02:40:30;40.97;;;15.83;;
11121;SDS011;5615;49.304;10.576;2024-01-15T02:42:56;31.90;;;12.80;;
11121;SDS011;5615;49.304;10.576;2024-01-15T02:45:23;41.03;;;15.60;;
11121;SDS011;5615;49.304;10.576;2024-01-15T02:47:50;33.60;;;12.80;;
11121;SDS011;5615;49.304;10.576;2024-01-15T02:50:16;33.57;;;13.43;;
11121;SDS011;5615;49.304;10.576;2024-01-15T02:52:43;38.87;;;16.73;;
11121;SDS011;5615;49.304;10.576;2024-01-15T02:55:10;37.50;;;15.77;;
11121;SDS011;5615;49.304;10.576;2024-01-15T02:57:38;35.93;;;15.47;;
11121;SDS011;5615;49.304;10.576;2024-01-15T03:00:05;43.33;;;17.33;;
11121;SDS011;5615;49.304;10.576;2024-01-15T03:02:33;41.83;;;17.50;;
11121;SDS011;5615;49.304;10.576;2024-01-15T03:05:02;43.57;;;17.77;;
11121;SDS011;5615;49.304;10.576;2024-01-15T03:07:29;43.47;;;17.37;;
11121;SDS011;5615;49.304;10.576;2024-01-15T03:09:56;45.23;;;17.87;;
11121;SDS011;5615;49.304;10.576;2024-01-15T03:12:23;42.83;;;16.47;;
11121;SDS011;5615;49.304;10.576;2024-01-15T03:14:51;42.27;;;18.03;;
11121;SDS011;5615;49.304;10.576;2024-01-15T03:17:17;46.57;;;18.20;;
11121;SDS011;5615;49.304;10.576;2024-01-15T03:19:44;40.80;;;16.67;;
11121;SDS011;5615;49.304;10.576;2024-01-15T03:22:11;41.00;;;17.07;;
11121;SDS011;5615;49.304;10.576;2024-01-15T03:24:37;43.10;;;17.73;;
11121;SDS011;5615;49.304;10.576;2024-01-15T03:27:04;38.20;;;15.90;;
11121;SDS011;5615;49.304;10.576;2024-01-15T03:29:31;33.20;;;15.13;;
11121;SDS011;5615;49.304;10.576;2024-01-15T03:31:59;42.43;;;18.30;;
11121;SDS011;5615;49.304;10.576;2024-01-15T03:34:25;38.47;;;16.27;;
11121;SDS011;5615;49.304;10.576;2024-01-15T03:36:52;35.30;;;14.73;;
11121;SDS011;5615;49.304;10.576;2024-01-15T03:39:19;39.53;;;18.40;;
11121;SDS011;5615;49.304;10.576;2024-01-15T03:41:45;39.10;;;15.93;;
11121;SDS011;5615;49.304;10.576;2024-01-15T03:44:12;39.13;;;16.20;;
11121;SDS011;5615;49.304;10.576;2024-01-15T03:46:39;43.63;;;17.80;;
11121;SDS011;5615;49.304;10.576;2024-01-15T03:49:07;37.20;;;16.67;;
11121;SDS011;5615;49.304;10.576;2024-01-15T03:51:33;33.77;;;14.70;;
11121;SDS011;5615;49.304;10.576;2024-01-15T03:54:00;37.80;;;16.23;;
11121;SDS011;5615;49.304;10.576;2024-01-15T03:56:26;39.37;;;18.87;;
11121;SDS011;5615;49.304;10.576;2024-01-15T03:58:53;34.43;;;15.83;;
11121;SDS011;5615;49.304;10.576;2024-01-15T04:01:20;37.03;;;15.70;;
11121;SDS011;5615;49.304;10.576;2024-01-15T04:03:46;38.83;;;16.27;;
11121;SDS011;5615;49.304;10.576;2024-01-15T04:06:14;36.17;;;16.17;;
11121;SDS011;5615;49.304;10.576;2024-01-15T04:08:41;36.13;;;14.97;;
11121;SDS011;5615;49.304;10.576;2024-01-15T04:11:08;38.57;;;16.33;;
11121;SDS011;5615;49.304;10.576;2024-01-15T04:13:34;41.30;;;17.10;;
11121;SDS011;5615;49.304;10.576;2024-01-15T04:16:01;40.67;;;16.90;;
11121;SDS011;5615;49.304;10.576;2024-01-15T04:18:28;30.47;;;14.63;;
11121;SDS011;5615;49.304;10.576;2024-01-15T04:20:55;37.97;;;16.27;;
11121;SDS011;5615;49.304;10.576;2024-01-15T04:23:23;40.10;;;16.43;;
11121;SDS011;5615;49.304;10.576;2024-01-15T04:25:49;36.20;;;16.73;;
11121;SDS011;5615;49.304;10.576;2024-01-15T04:28:16;34.43;;;15.97;;
11121;SDS011;5615;49.304;10.576;2024-01-15T04:30:43;39.87;;;17.27;;
11121;SDS011;5615;49.304;10.576;2024-01-15T04:33:09;30.40;;;15.33;;
11121;SDS011;5615;49.304;10.576;2024-01-15T04:35:37;35.03;;;15.63;;
11121;SDS011;5615;49.304;10.576;2024-01-15T04:38:04;37.90;;;16.70;;
11121;SDS011;5615;49.304;10.576;2024-01-15T04:40:32;33.70;;;15.30;;
11121;SDS011;5615;49.304;10.576;2024-01-15T04:42:58;34.67;;;16.47;;
11121;SDS011;5615;49.304;10.576;2024-01-15T04:45:25;34.93;;;15.97;;
11121;SDS011;5615;49.304;10.576;2024-01-15T04:47:53;34.33;;;15.23;;
11121;SDS011;5615;49.304;10.576;2024-01-15T04:50:20;30.50;;;15.03;;
11121;SDS011;5615;49.304;10.576;2024-01-15T04:52:47;38.20;;;15.73;;
11121;SDS011;5615;49.304;10.576;2024-01-15T04:55:14;33.03;;;15.50;;
11121;SDS011;5615;49.304;10.576;2024-01-15T04:57:42;36.07;;;15.17;;
11121;SDS011;5615;49.304;10.576;2024-01-15T05:00:09;31.00;;;14.33;;
11121;SDS011;5615;49.304;10.576;2024-01-15T05:02:37;33.70;;;15.60;;
11121;SDS011;5615;49.304;10.576;2024-01-15T05:05:04;28.40;;;14.90;;
11121;SDS011;5615;49.304;10.576;2024-01-15T05:07:30;29.53;;;12.13;;
11121;SDS011;5615;49.304;10.576;2024-01-15T05:09:57;28.13;;;13.77;;
11121;SDS011;5615;49.304;10.576;2024-01-15T05:12:23;29.77;;;13.97;;
11121;SDS011;5615;49.304;10.576;2024-01-15T05:14:51;31.80;;;13.83;;
11121;SDS011;5615;49.304;10.576;2024-01-15T05:17:18;31.73;;;12.53;;
11121;SDS011;5615;49.304;10.576;2024-01-15T05:19:45;27.80;;;12.50;;
11121;SDS011;5615;49.304;10.576;2024-01-15T05:22:11;29.00;;;14.40;;
11121;SDS011;5615;49.304;10.576;2024-01-15T05:24:38;33.00;;;14.47;;
11121;SDS011;5615;49.304;10.576;2024-01-15T05:27:05;31.20;;;14.80;;
11121;SDS011;5615;49.304;10.576;2024-01-15T05:29:31;29.63;;;14.17;;
11121;SDS011;5615;49.304;10.576;2024-01-15T05:31:59;31.83;;;14.77;;
11121;SDS011;5615;49.304;10.576;2024-01-15T05:34:26;28.90;;;13.87;;
11121;SDS011;5615;49.304;10.576;2024-01-15T05:36:52;27.87;;;14.43;;
11121;SDS011;5615;49.304;10.576;2024-01-15T05:39:19;26.87;;;13.50;;
11121;SDS011;5615;49.304;10.576;2024-01-15T05:41:46;29.33;;;12.60;;
11121;SDS011;5615;49.304;10.576;2024-01-15T05:44:12;26.60;;;13.97;;
11121;SDS011;5615;49.304;10.576;2024-01-15T05:46:39;26.50;;;14.33;;
11121;SDS011;5615;49.304;10.576;2024-01-15T05:49:07;26.97;;;13.80;;
11121;SDS011;5615;49.304;10.576;2024-01-15T05:51:33;30.60;;;14.37;;
11121;SDS011;5615;49.304;10.576;2024-01-15T05:54:00;31.70;;;15.03;;
11121;SDS011;5615;49.304;10.576;2024-01-15T05:56:27;30.67;;;14.87;;
11121;SDS011;5615;49.304;10.576;2024-01-15T05:58:54;28.63;;;13.23;;
11121;SDS011;5615;49.304;10.576;2024-01-15T06:01:20;25.17;;;12.30;;
11121;SDS011;5615;49.304;10.576;2024-01-15T06:03:47;29.07;;;13.93;;
11121;SDS011;5615;49.304;10.576;2024-01-15T06:06:15;29.17;;;13.93;;
11121;SDS011;5615;49.304;10.576;2024-01-15T06:08:42;27.30;;;12.57;;
11121;SDS011;5615;49.304;10.576;2024-01-15T06:11:08;24.07;;;13.03;;
11121;SDS011;5615;49.304;10.576;2024-01-15T06:13:35;29.83;;;13.23;;
11121;SDS011;5615;49.304;10.576;2024-01-15T06:16:02;26.97;;;13.93;;
11121;SDS011;5615;49.304;10.576;2024-01-15T06:18:28;27.17;;;14.07;;
11121;SDS011;5615;49.304;10.576;2024-01-15T06:20:55;33.27;;;15.70;;
11121;SDS011;5615;49.304;10.576;2024-01-15T06:23:23;28.10;;;13.70;;
11121;SDS011;5615;49.304;10.576;2024-01-15T06:25:50;27.63;;;13.67;;
11121;SDS011;5615;49.304;10.576;2024-01-15T06:28:16;23.30;;;10.80;;
11121;SDS011;5615;49.304;10.576;2024-01-15T06:30:43;26.13;;;13.87;;
11121;SDS011;5615;49.304;10.576;2024-01-15T06:33:10;32.40;;;14.87;;
11121;SDS011;5615;49.304;10.576;2024-01-15T06:35:36;27.70;;;13.57;;
11121;SDS011;5615;49.304;10.576;2024-01-15T06:38:03;25.17;;;13.03;;
11121;SDS011;5615;49.304;10.576;2024-01-15T06:40:31;27.73;;;13.83;;
11121;SDS011;5615;49.304;10.576;2024-01-15T06:42:58;25.30;;;12.67;;
11121;SDS011;5615;49.304;10.576;2024-01-15T06:45:24;25.17;;;12.53;;
11121;SDS011;5615;49.304;10.576;2024-01-15T06:47:51;23.37;;;13.77;;
11121;SDS011;5615;49.304;10.576;2024-01-15T06:50:18;28.80;;;14.30;;
11121;SDS011;5615;49.304;10.576;2024-01-15T06:52:44;26.43;;;13.37;;
11121;SDS011;5615;49.304;10.576;2024-01-15T06:55:11;29.57;;;13.30;;
11121;SDS011;5615;49.304;10.576;2024-01-15T06:57:39;29.70;;;12.83;;
11121;SDS011;5615;49.304;10.576;2024-01-15T07:00:06;26.90;;;14.27;;
11121;SDS011;5615;49.304;10.576;2024-01-15T07:02:34;22.37;;;11.70;;
11121;SDS011;5615;49.304;10.576;2024-01-15T07:05:00;27.73;;;13.50;;
11121;SDS011;5615;49.304;10.576;2024-01-15T07:07:30;27.53;;;14.03;;
11121;SDS011;5615;49.304;10.576;2024-01-15T07:09:56;27.67;;;14.03;;
11121;SDS011;5615;49.304;10.576;2024-01-15T07:12:23;27.43;;;13.93;;
11121;SDS011;5615;49.304;10.576;2024-01-15T07:14:51;29.67;;;14.50;;
11121;SDS011;5615;49.304;10.576;2024-01-15T07:17:18;24.00;;;13.37;;
11121;SDS011;5615;49.304;10.576;2024-01-15T07:19:44;24.27;;;12.93;;
11121;SDS011;5615;49.304;10.576;2024-01-15T07:22:11;25.20;;;13.70;;
11121;SDS011;5615;49.304;10.576;2024-01-15T07:24:38;20.73;;;12.13;;
11121;SDS011;5615;49.304;10.576;2024-01-15T07:27:04;29.13;;;13.53;;
11121;SDS011;5615;49.304;10.576;2024-01-15T07:29:31;25.83;;;13.17;;
11121;SDS011;5615;49.304;10.576;2024-01-15T07:32:02;28.77;;;13.83;;
11121;SDS011;5615;49.304;10.576;2024-01-15T07:34:29;22.97;;;12.30;;
11121;SDS011;5615;49.304;10.576;2024-01-15T07:36:56;26.53;;;12.50;;
11121;SDS011;5615;49.304;10.576;2024-01-15T07:39:23;27.33;;;12.90;;
11121;SDS011;5615;49.304;10.576;2024-01-15T07:41:50;24.53;;;11.63;;
11121;SDS011;5615;49.304;10.576;2024-01-15T07:44:17;19.87;;;11.50;;
11121;SDS011;5615;49.304;10.576;2024-01-15T07:46:44;23.53;;;12.03;;
11121;SDS011;5615;49.304;10.576;2024-01-15T07:49:12;23.90;;;12.70;;
11121;SDS011;5615;49.304;10.576;2024-01-15T07:51:39;22.43;;;10.87;;
11121;SDS011;5615;49.304;10.576;2024-01-15T07:54:08;25.23;;;12.53;;
11121;SDS011;5615;49.304;10.576;2024-01-15T07:56:37;19.00;;;11.73;;
11121;SDS011;5615;49.304;10.576;2024-01-15T07:59:19;19.10;;;10.30;;
11121;SDS011;5615;49.304;10.576;2024-01-15T08:01:46;21.23;;;11.97;;
11121;SDS011;5615;49.304;10.576;2024-01-15T08:04:14;23.40;;;11.33;;
11121;SDS011;5615;49.304;10.576;2024-01-15T08:06:41;23.67;;;11.83;;
11121;SDS011;5615;49.304;10.576;2024-01-15T08:09:08;19.77;;;10.73;;
11121;SDS011;5615;49.304;10.576;2024-01-15T08:11:34;21.07;;;10.17;;
11121;SDS011;5615;49.304;10.576;2024-01-15T08:14:01;21.20;;;11.23;;
11121;SDS011;5615;49.304;10.576;2024-01-15T08:16:28;21.87;;;10.57;;
11121;SDS011;5615;49.304;10.576;2024-01-15T08:18:55;22.50;;;11.77;;
11121;SDS011;5615;49.304;10.576;2024-01-15T08:21:23;20.03;;;11.03;;
11121;SDS011;5615;49.304;10.576;2024-01-15T08:23:49;21.43;;;11.20;;
11121;SDS011;5615;49.304;10.576;2024-01-15T08:26:17;17.53;;;8.93;;
11121;SDS011;5615;49.304;10.576;2024-01-15T08:28:43;20.60;;;9.93;;
11121;SDS011;5615;49.304;10.576;2024-01-15T08:31:10;19.97;;;11.60;;
11121;SDS011;5615;49.304;10.576;2024-01-15T08:33:36;20.57;;;11.27;;
11121;SDS011;5615;49.304;10.576;2024-01-15T08:36:03;20.67;;;11.63;;
11121;SDS011;5615;49.304;10.576;2024-01-15T08:38:32;14.80;;;9.13;;
11121;SDS011;5615;49.304;10.576;2024-01-15T08:40:58;20.67;;;10.10;;
11121;SDS011;5615;49.304;10.576;2024-01-15T08:43:25;17.97;;;9.00;;
11121;SDS011;5615;49.304;10.576;2024-01-15T08:45:52;19.93;;;11.20;;
11121;SDS011;5615;49.304;10.576;2024-01-15T08:48:19;20.77;;;10.20;;
11121;SDS011;5615;49.304;10.576;2024-01-15T08:50:45;21.03;;;11.53;;
11121;SDS011;5615;49.304;10.576;2024-01-15T08:53:12;24.07;;;12.13;;
11121;SDS011;5615;49.304;10.576;2024-01-15T08:55:41;21.50;;;11.87;;
11121;SDS011;5615;49.304;10.576;2024-01-15T08:58:09;21.70;;;11.37;;
11121;SDS011;5615;49.304;10.576;2024-01-15T09:00:35;19.57;;;11.13;;
11121;SDS011;5615;49.304;10.576;2024-01-15T09:03:02;26.07;;;12.03;;
11121;SDS011;5615;49.304;10.576;2024-01-15T09:05:29;21.57;;;11.67;;
11121;SDS011;5615;49.304;10.576;2024-01-15T09:07:56;15.30;;;9.60;;
11121;SDS011;5615;49.304;10.576;2024-01-15T09:10:23;19.20;;;10.77;;
11121;SDS011;5615;49.304;10.576;2024-01-15T09:12:51;18.67;;;10.60;;
11121;SDS011;5615;49.304;10.576;2024-01-15T09:15:17;15.00;;;8.00;;
11121;SDS011;5615;49.304;10.576;2024-01-15T09:17:45;15.97;;;9.80;;
11121;SDS011;5615;49.304;10.576;2024-01-15T09:20:12;20.67;;;10.13;;
11121;SDS011;5615;49.304;10.576;2024-01-15T09:22:38;15.60;;;9.23;;
11121;SDS011;5615;49.304;10.576;2024-01-15T09:25:06;17.97;;;9.33;;
11121;SDS011;5615;49.304;10.576;2024-01-15T09:27:34;18.50;;;9.33;;
11121;SDS011;5615;49.304;10.576;2024-01-15T09:30:02;19.93;;;10.00;;
11121;SDS011;5615;49.304;10.576;2024-01-15T09:32:29;14.87;;;8.70;;
11121;SDS011;5615;49.304;10.576;2024-01-15T09:34:58;12.63;;;8.07;;
11121;SDS011;5615;49.304;10.576;2024-01-15T09:37:24;18.50;;;10.20;;
11121;SDS011;5615;49.304;10.576;2024-01-15T09:39:51;17.57;;;9.47;;
11121;SDS011;5615;49.304;10.576;2024-01-15T09:42:19;15.20;;;8.57;;
11121;SDS011;5615;49.304;10.576;2024-01-15T09:44:46;17.30;;;9.43;;
11121;SDS011;5615;49.304;10.576;2024-01-15T09:47:15;14.47;;;8.20;;
11121;SDS011;5615;49.304;10.576;2024-01-15T09:49:42;16.57;;;9.40;;
11121;SDS011;5615;49.304;10.576;2024-01-15T09:52:09;17.93;;;10.17;;
11121;SDS011;5615;49.304;10.576;2024-01-15T09:54:37;15.83;;;8.70;;
11121;SDS011;5615;49.304;10.576;2024-01-15T09:57:05;17.17;;;9.70;;
11121;SDS011;5615;49.304;10.576;2024-01-15T09:59:32;17.50;;;9.30;;
11121;SDS011;5615;49.304;10.576;2024-01-15T10:02:00;16.07;;;9.47;;
11121;SDS011;5615;49.304;10.576;2024-01-15T10:04:30;16.33;;;9.13;;
11121;SDS011;5615;49.304;10.576;2024-01-15T10:06:57;19.90;;;12.03;;
11121;SDS011;5615;49.304;10.576;2024-01-15T10:09:25;17.87;;;10.53;;
11121;SDS011;5615;49.304;10.576;2024-01-15T10:11:53;16.23;;;9.87;;
11121;SDS011;5615;49.304;10.576;2024-01-15T10:14:20;18.60;;;10.37;;
11121;SDS011;5615;49.304;10.576;2024-01-15T10:16:47;18.00;;;10.03;;
11121;SDS011;5615;49.304;10.576;2024-01-15T10:19:13;15.43;;;10.43;;
11121;SDS011;5615;49.304;10.576;2024-01-15T10:21:41;15.60;;;9.33;;
11121;SDS011;5615;49.304;10.576;2024-01-15T10:24:08;14.63;;;8.53;;
11121;SDS011;5615;49.304;10.576;2024-01-15T10:26:35;17.20;;;9.77;;
11121;SDS011;5615;49.304;10.576;2024-01-15T10:29:01;15.33;;;8.73;;
11121;SDS011;5615;49.304;10.576;2024-01-15T10:31:28;15.37;;;9.80;;
11121;SDS011;5615;49.304;10.576;2024-01-15T10:33:55;14.27;;;9.13;;
11121;SDS011;5615;49.304;10.576;2024-01-15T10:36:38;15.60;;;8.77;;
11121;SDS011;5615;49.304;10.576;2024-01-15T10:39:07;16.87;;;10.47;;
11121;SDS011;5615;49.304;10.576;2024-01-15T10:41:34;17.60;;;9.53;;
11121;SDS011;5615;49.304;10.576;2024-01-15T10:44:01;16.13;;;9.90;;
11121;SDS011;5615;49.304;10.576;2024-01-15T10:46:27;14.57;;;8.57;;
11121;SDS011;5615;49.304;10.576;2024-01-15T10:48:55;17.87;;;10.37;;
11121;SDS011;5615;49.304;10.576;2024-01-15T10:51:22;14.20;;;8.60;;
11121;SDS011;5615;49.304;10.576;2024-01-15T10:53:51;13.73;;;8.70;;
11121;SDS011;5615;49.304;10.576;2024-01-15T10:56:20;13.37;;;8.10;;
11121;SDS011;5615;49.304;10.576;2024-01-15T10:58:48;16.43;;;9.10;;
11121;SDS011;5615;49.304;10.576;2024-01-15T11:01:17;18.17;;;8.80;;
11121;SDS011;5615;49.304;10.576;2024-01-15T11:03:44;16.80;;;9.23;;
11121;SDS011;5615;49.304;10.576;2024-01-15T11:06:18;12.67;;;7.47;;
11121;SDS011;5615;49.304;10.576;2024-01-15T11:08:45;13.70;;;8.43;;
11121;SDS011;5615;49.304;10.576;2024-01-15T11:11:14;14.53;;;8.57;;
11121;SDS011;5615;49.304;10.576;2024-01-15T11:13:43;14.47;;;8.17;;
11121;SDS011;5615;49.304;10.576;2024-01-15T11:16:15;15.37;;;8.87;;
11121;SDS011;5615;49.304;10.576;2024-01-15T11:18:42;16.93;;;9.47;;
11121;SDS011;5615;49.304;10.576;2024-01-15T11:21:27;12.60;;;8.37;;
11121;SDS011;5615;49.304;10.576;2024-01-15T11:23:55;18.93;;;9.50;;
11121;SDS011;5615;49.304;10.576;2024-01-15T11:26:33;18.10;;;9.63;;
11121;SDS011;5615;49.304;10.576;2024-01-15T11:29:03;17.97;;;10.40;;
11121;SDS011;5615;49.304;10.576;2024-01-15T11:34:49;18.27;;;9.73;;
11121;SDS011;5615;49.304;10.576;2024-01-15T11:37:17;18.37;;;9.23;;
11121;SDS011;5615;49.304;10.576;2024-01-15T11:39:43;15.43;;;8.83;;
11121;SDS011;5615;49.304;10.576;2024-01-15T11:42:10;15.47;;;9.60;;
11121;SDS011;5615;49.304;10.576;2024-01-15T11:44:39;14.10;;;8.80;;
11121;SDS011;5615;49.304;10.576;2024-01-15T11:47:06;16.57;;;10.07;;
11121;SDS011;5615;49.304;10.576;2024-01-15T11:49:41;19.30;;;9.63;;
11121;SDS011;5615;49.304;10.576;2024-01-15T11:52:24;16.30;;;9.47;;
11121;SDS011;5615;49.304;10.576;2024-01-15T11:54:54;16.80;;;9.33;;
11121;SDS011;5615;49.304;10.576;2024-01-15T11:57:28;15.30;;;8.60;;
11121;SDS011;5615;49.304;10.576;2024-01-15T12:00:01;17.97;;;9.93;;
11121;SDS011;5615;49.304;10.576;2024-01-15T12:02:29;19.87;;;9.20;;
11121;SDS011;5615;49.304;10.576;2024-01-15T12:04:56;14.97;;;9.10;;
11121;SDS011;5615;49.304;10.576;2024-01-15T12:07:22;21.90;;;13.57;;
11121;SDS011;5615;49.304;10.576;2024-01-15T12:09:49;15.03;;;8.93;;
11121;SDS011;5615;49.304;10.576;2024-01-15T12:12:17;16.10;;;9.13;;
11121;SDS011;5615;49.304;10.576;2024-01-15T12:14:51;18.87;;;8.90;;
11121;SDS011;5615;49.304;10.576;2024-01-15T12:17:19;16.60;;;9.37;;
11121;SDS011;5615;49.304;10.576;2024-01-15T12:19:46;16.03;;;9.27;;
11121;SDS011;5615;49.304;10.576;2024-01-15T12:22:12;14.07;;;8.43;;
11121;SDS011;5615;49.304;10.576;2024-01-15T12:24:40;32.90;;;19.03;;
11121;SDS011;5615;49.304;10.576;2024-01-15T12:27:07;14.93;;;9.97;;
11121;SDS011;5615;49.304;10.576;2024-01-15T12:29:34;17.10;;;9.73;;
11121;SDS011;5615;49.304;10.576;2024-01-15T12:32:01;14.47;;;8.23;;
11121;SDS011;5615;49.304;10.576;2024-01-15T12:34:30;14.63;;;9.20;;
11121;SDS011;5615;49.304;10.576;2024-01-15T12:36:57;17.37;;;8.57;;
11121;SDS011;5615;49.304;10.576;2024-01-15T12:39:24;13.13;;;9.10;;
11121;SDS011;5615;49.304;10.576;2024-01-15T12:41:50;15.57;;;8.83;;
11121;SDS011;5615;49.304;10.576;2024-01-15T12:44:17;15.40;;;9.23;;
11121;SDS011;5615;49.304;10.576;2024-01-15T12:46:44;17.33;;;9.90;;
11121;SDS011;5615;49.304;10.576;2024-01-15T12:49:12;15.10;;;9.33;;
11121;SDS011;5615;49.304;10.576;2024-01-15T12:51:40;16.37;;;9.10;;
11121;SDS011;5615;49.304;10.576;2024-01-15T12:54:07;20.47;;;10.27;;
11121;SDS011;5615;49.304;10.576;2024-01-15T12:56:33;16.43;;;9.73;;
11121;SDS011;5615;49.304;10.576;2024-01-15T12:59:00;16.97;;;9.10;;
11121;SDS011;5615;49.304;10.576;2024-01-15T13:01:27;21.20;;;9.77;;
11121;SDS011;5615;49.304;10.576;2024-01-15T13:03:54;18.20;;;10.33;;
11121;SDS011;5615;49.304;10.576;2024-01-15T13:06:20;17.63;;;8.90;;
11121;SDS011;5615;49.304;10.576;2024-01-15T13:08:48;16.43;;;8.87;;
11121;SDS011;5615;49.304;10.576;2024-01-15T13:11:15;15.47;;;10.27;;
11121;SDS011;5615;49.304;10.576;2024-01-15T13:13:42;16.50;;;9.50;;
11121;SDS011;5615;49.304;10.576;2024-01-15T13:16:09;18.30;;;9.33;;
11121;SDS011;5615;49.304;10.576;2024-01-15T13:18:36;16.83;;;8.97;;
11121;SDS011;5615;49.304;10.576;2024-01-15T13:21:03;15.10;;;8.67;;
11121;SDS011;5615;49.304;10.576;2024-01-15T13:23:29;14.07;;;8.60;;
11121;SDS011;5615;49.304;10.576;2024-01-15T13:25:57;18.37;;;9.17;;
11121;SDS011;5615;49.304;10.576;2024-01-15T13:28:24;13.33;;;8.53;;
11121;SDS011;5615;49.304;10.576;2024-01-15T13:30:51;17.20;;;9.27;;
11121;SDS011;5615;49.304;10.576;2024-01-15T13:33:17;14.83;;;9.23;;
11121;SDS011;5615;49.304;10.576;2024-01-15T13:35:44;14.33;;;8.47;;
11121;SDS011;5615;49.304;10.576;2024-01-15T13:38:14;14.30;;;8.90;;
11121;SDS011;5615;49.304;10.576;2024-01-15T13:40:41;14.47;;;8.63;;
11121;SDS011;5615;49.304;10.576;2024-01-15T13:43:11;11.93;;;8.50;;
11121;SDS011;5615;49.304;10.576;2024-01-15T13:45:39;13.73;;;9.00;;
11121;SDS011;5615;49.304;10.576;2024-01-15T13:48:07;13.47;;;9.00;;
11121;SDS011;5615;49.304;10.576;2024-01-15T13:50:33;12.53;;;7.90;;
11121;SDS011;5615;49.304;10.576;2024-01-15T13:53:01;16.20;;;8.33;;
11121;SDS011;5615;49.304;10.576;2024-01-15T13:55:28;14.10;;;8.63;;
11121;SDS011;5615;49.304;10.576;2024-01-15T13:57:55;12.80;;;8.37;;
11121;SDS011;5615;49.304;10.576;2024-01-15T14:00:23;12.00;;;7.97;;
11121;SDS011;5615;49.304;10.576;2024-01-15T14:02:50;12.80;;;7.97;;
11121;SDS011;5615;49.304;10.576;2024-01-15T14:05:17;12.93;;;8.30;;
11121;SDS011;5615;49.304;10.576;2024-01-15T14:07:43;9.70;;;7.20;;
11121;SDS011;5615;49.304;10.576;2024-01-15T14:10:10;11.60;;;8.00;;
11121;SDS011;5615;49.304;10.576;2024-01-15T14:12:37;11.17;;;7.87;;
11121;SDS011;5615;49.304;10.576;2024-01-15T14:15:05;13.30;;;8.13;;
11121;SDS011;5615;49.304;10.576;2024-01-15T14:17:33;11.87;;;7.70;;
11121;SDS011;5615;49.304;10.576;2024-01-15T14:20:00;11.10;;;7.30;;
11121;SDS011;5615;49.304;10.576;2024-01-15T14:22:26;10.97;;;7.33;;
11121;SDS011;5615;49.304;10.576;2024-01-15T14:24:53;9.57;;;6.40;;
11121;SDS011;5615;49.304;10.576;2024-01-15T14:27:20;12.43;;;7.30;;
11121;SDS011;5615;49.304;10.576;2024-01-15T14:29:46;11.47;;;7.43;;